createdAt,value
2022-10-08T00:00:35.302Z,9.03
2022-10-08T00:01:37.995Z,9.08
2022-10-08T00:02:41.344Z,9.04
2022-10-08T00:03:45.985Z,9.04
2022-10-08T00:04:49.605Z,9.01
2022-10-08T00:05:57.393Z,8.96
2022-10-08T00:07:00.898Z,9.00
2022-10-08T00:08:04.819Z,8.97
2022-10-08T00:09:08.326Z,9.03
2022-10-08T00:10:12.340Z,9.02
2022-10-08T00:11:19.719Z,8.90
2022-10-08T00:12:26.047Z,8.77
2022-10-08T00:13:32.800Z,8.74
2022-10-08T00:14:39.784Z,8.77
2022-10-08T00:15:47.348Z,8.81
2022-10-08T00:16:50.824Z,8.88
2022-10-08T00:17:53.730Z,8.91
2022-10-08T00:19:01.220Z,8.91
2022-10-08T00:20:05.510Z,8.85
2022-10-08T00:21:11.903Z,8.83
2022-10-08T00:22:19.918Z,8.80
2022-10-08T00:23:24.494Z,8.79
2022-10-08T00:24:27.476Z,8.86
2022-10-08T00:25:31.083Z,8.88
2022-10-08T00:26:39.753Z,8.87
2022-10-08T00:27:43.007Z,8.89
2022-10-08T00:28:47.254Z,8.91
2022-10-08T00:29:53.667Z,8.90
2022-10-08T00:30:57.279Z,8.89
2022-10-08T00:32:03.376Z,8.78
2022-10-08T00:33:10.582Z,8.81
2022-10-08T00:34:16.883Z,8.84
2022-10-08T00:35:20.489Z,8.85
2022-10-08T00:36:25.029Z,8.74
2022-10-08T00:37:28.220Z,8.69
2022-10-08T00:38:32.281Z,8.68
2022-10-08T00:39:35.658Z,8.75
2022-10-08T00:40:45.251Z,8.80
2022-10-08T00:41:49.031Z,8.82
2022-10-08T00:42:53.369Z,8.85
2022-10-08T00:43:58.127Z,8.86
2022-10-08T00:45:02.155Z,8.88
2022-10-08T00:46:07.123Z,8.91
2022-10-08T00:47:20.758Z,8.91
2022-10-08T00:48:25.110Z,8.89
2022-10-08T00:49:28.291Z,8.91
2022-10-08T00:50:34.522Z,8.90
2022-10-08T00:51:38.747Z,8.88
2022-10-08T00:52:44.667Z,8.87
2022-10-08T00:53:48.266Z,8.89
2022-10-08T00:54:51.990Z,8.90
2022-10-08T00:55:55.274Z,8.88
2022-10-08T00:56:58.674Z,8.93
2022-10-08T00:58:10.033Z,8.94
2022-10-08T00:59:13.835Z,8.94
2022-10-08T01:00:19.227Z,8.94
2022-10-08T01:01:22.288Z,8.95
2022-10-08T01:02:27.530Z,8.95
2022-10-08T01:03:31.310Z,8.93
2022-10-08T01:04:36.379Z,8.92
2022-10-08T01:05:47.395Z,8.89
2022-10-08T01:07:04.582Z,8.88
2022-10-08T01:08:10.603Z,8.89
2022-10-08T01:09:18.924Z,8.89
2022-10-08T01:10:37.877Z,8.88
2022-10-08T01:11:50.362Z,8.82
2022-10-08T01:12:59.721Z,8.80
2022-10-08T01:14:04.718Z,8.76
2022-10-08T01:15:12.359Z,8.77
2022-10-08T01:16:18.579Z,8.73
2022-10-08T01:17:29.388Z,8.67
2022-10-08T01:18:35.001Z,8.70
2022-10-08T01:19:43.508Z,8.72
2022-10-08T01:20:49.218Z,8.73
2022-10-08T01:21:58.114Z,8.72
2022-10-08T01:23:21.400Z,8.73
2022-10-08T01:25:00.436Z,8.64
2022-10-08T01:26:08.728Z,8.60
2022-10-08T01:28:42.595Z,8.72
2022-10-08T01:29:47.863Z,8.62
2022-10-08T01:30:56.159Z,8.58
2022-10-08T01:32:04.583Z,8.59
2022-10-08T01:33:11.640Z,8.57
2022-10-08T01:34:18.418Z,8.59
2022-10-08T01:35:25.565Z,8.60
2022-10-08T01:36:30.302Z,8.63
2022-10-08T01:37:36.879Z,8.66
2022-10-08T01:38:42.880Z,8.68
2022-10-08T01:39:47.956Z,8.69
2022-10-08T01:40:53.732Z,8.74
2022-10-08T01:41:57.848Z,8.75
2022-10-08T01:43:03.480Z,8.78
2022-10-08T01:44:11.863Z,8.81
2022-10-08T01:45:18.307Z,8.82
2022-10-08T01:46:23.457Z,8.85
2022-10-08T01:47:30.474Z,8.82
2022-10-08T01:48:36.325Z,8.78
2022-10-08T01:49:43.914Z,8.74
2022-10-08T01:50:49.047Z,8.72
2022-10-08T01:51:55.511Z,8.69
2022-10-08T01:53:00.573Z,8.72
2022-10-08T01:54:05.025Z,8.75
2022-10-08T01:55:11.132Z,8.72
2022-10-08T01:56:18.907Z,8.75
2022-10-08T01:57:23.059Z,8.78
2022-10-08T01:58:46.908Z,8.79
2022-10-08T01:59:53.115Z,8.77
2022-10-08T02:00:58.990Z,8.79
2022-10-08T02:02:04.164Z,8.80
2022-10-08T02:03:10.774Z,8.81
2022-10-08T02:04:32.348Z,8.81
2022-10-08T02:05:36.996Z,8.77
2022-10-08T02:06:41.634Z,8.77
2022-10-08T02:07:44.011Z,8.74
2022-10-08T02:08:47.725Z,8.66
2022-10-08T02:09:53.101Z,8.65
2022-10-08T02:10:55.768Z,8.65
2022-10-08T02:11:59.052Z,8.68
2022-10-08T02:13:02.790Z,8.62
2022-10-08T02:14:07.937Z,8.53
2022-10-08T02:15:24.116Z,8.45
2022-10-08T02:16:29.240Z,8.43
2022-10-08T02:17:54.507Z,8.49
2022-10-08T02:18:59.797Z,8.53
2022-10-08T02:20:11.803Z,8.42
2022-10-08T02:21:20.071Z,8.34
2022-10-08T02:22:26.820Z,8.31
2022-10-08T02:23:34.138Z,8.32
2022-10-08T02:24:39.087Z,8.33
2022-10-08T02:25:48.499Z,8.39
2022-10-08T02:26:53.889Z,8.41
2022-10-08T02:28:14.674Z,8.46
2022-10-08T02:29:30.958Z,8.41
2022-10-08T02:30:35.633Z,8.32
2022-10-08T02:31:58.940Z,8.23
2022-10-08T02:33:08.847Z,8.23
2022-10-08T02:34:30.434Z,8.32
2022-10-08T02:35:38.326Z,8.39
2022-10-08T02:36:44.965Z,8.45
2022-10-08T02:37:50.560Z,8.45
2022-10-08T02:38:55.946Z,8.49
2022-10-08T02:40:00.494Z,8.46
2022-10-08T02:41:04.618Z,8.45
2022-10-08T02:42:10.749Z,8.44
2022-10-08T02:43:16.870Z,8.44
2022-10-08T02:44:22.127Z,8.42
2022-10-08T02:45:27.166Z,8.41
2022-10-08T02:46:31.557Z,8.41
2022-10-08T02:47:38.493Z,8.43
2022-10-08T02:48:45.130Z,8.44
2022-10-08T02:49:52.237Z,8.42
2022-10-08T02:50:58.652Z,8.42
2022-10-08T02:52:04.257Z,8.43
2022-10-08T02:53:08.458Z,8.44
2022-10-08T02:54:14.155Z,8.44
2022-10-08T02:55:25.599Z,8.46
2022-10-08T02:56:35.892Z,8.46
2022-10-08T02:57:44.306Z,8.48
2022-10-08T02:58:48.126Z,8.46
2022-10-08T02:59:53.405Z,8.46
2022-10-08T03:01:00.578Z,8.49
2022-10-08T03:02:05.082Z,8.48
2022-10-08T03:03:09.507Z,8.50
2022-10-08T03:04:26.783Z,8.46
2022-10-08T03:05:31.562Z,8.42
2022-10-08T03:06:35.522Z,8.40
2022-10-08T03:07:37.775Z,8.40
2022-10-08T03:08:43.056Z,8.37
2022-10-08T03:09:48.137Z,8.37
2022-10-08T03:10:52.271Z,8.42
2022-10-08T03:11:55.670Z,8.45
2022-10-08T03:13:03.044Z,8.44
2022-10-08T03:14:08.631Z,8.45
2022-10-08T03:15:14.887Z,8.43
2022-10-08T03:16:19.745Z,8.41
2022-10-08T03:17:24.987Z,8.39
2022-10-08T03:18:28.491Z,8.39
2022-10-08T03:19:33.192Z,8.40
2022-10-08T03:20:46.481Z,8.39
2022-10-08T03:21:52.779Z,8.40
2022-10-08T03:22:57.028Z,8.37
2022-10-08T03:23:59.558Z,8.42
2022-10-08T03:25:02.890Z,8.42
2022-10-08T03:26:05.246Z,8.44
2022-10-08T03:27:09.390Z,8.45
2022-10-08T03:28:18.061Z,8.49
2022-10-08T03:29:22.351Z,8.49
2022-10-08T03:30:26.008Z,8.49
2022-10-08T03:31:28.434Z,8.49
2022-10-08T03:32:33.515Z,8.46
2022-10-08T03:33:36.883Z,8.46
2022-10-08T03:34:41.050Z,8.45
2022-10-08T03:35:45.049Z,8.42
2022-10-08T03:36:48.558Z,8.39
2022-10-08T03:37:52.898Z,8.36
2022-10-08T03:38:56.403Z,8.34
2022-10-08T03:39:59.794Z,8.29
2022-10-08T03:41:03.622Z,8.20
2022-10-08T03:42:07.533Z,8.11
2022-10-08T03:43:11.990Z,8.16
2022-10-08T03:44:15.599Z,8.18
2022-10-08T03:45:18.370Z,8.22
2022-10-08T03:46:22.275Z,8.23
2022-10-08T03:47:25.410Z,8.13
2022-10-08T03:48:30.444Z,8.08
2022-10-08T03:49:34.070Z,8.08
2022-10-08T03:50:38.540Z,8.13
2022-10-08T03:51:44.615Z,8.22
2022-10-08T03:52:48.348Z,8.28
2022-10-08T03:53:52.054Z,8.31
2022-10-08T03:54:55.454Z,8.31
2022-10-08T03:56:01.630Z,8.32
2022-10-08T03:57:05.273Z,8.31
2022-10-08T03:58:07.744Z,8.33
2022-10-08T03:59:10.281Z,8.32
2022-10-08T04:00:13.385Z,8.28
2022-10-08T04:01:17.962Z,8.31
2022-10-08T04:02:21.387Z,8.29
2022-10-08T04:03:24.955Z,8.31
2022-10-08T04:04:28.111Z,8.31
2022-10-08T04:05:31.443Z,8.34
2022-10-08T04:06:33.800Z,8.37
2022-10-08T04:07:37.188Z,8.41
2022-10-08T04:08:44.331Z,8.40
2022-10-08T04:09:47.865Z,8.44
2022-10-08T04:10:53.396Z,8.41
2022-10-08T04:11:57.173Z,8.37
2022-10-08T04:13:02.026Z,8.34
2022-10-08T04:14:05.852Z,8.38
2022-10-08T04:15:10.365Z,8.44
2022-10-08T04:16:16.831Z,8.47
2022-10-08T04:17:20.118Z,8.48
2022-10-08T04:18:24.397Z,8.42
2022-10-08T04:19:27.232Z,8.44
2022-10-08T04:20:30.785Z,8.44
2022-10-08T04:21:35.401Z,8.44
2022-10-08T04:22:38.697Z,8.43
2022-10-08T04:23:42.731Z,8.39
2022-10-08T04:24:49.668Z,8.37
2022-10-08T04:25:53.599Z,8.32
2022-10-08T04:26:56.050Z,8.28
2022-10-08T04:27:59.706Z,8.39
2022-10-08T04:29:03.593Z,8.45
2022-10-08T04:30:07.615Z,8.55
2022-10-08T04:31:13.063Z,8.58
2022-10-08T04:32:17.129Z,8.64
2022-10-08T04:33:19.705Z,8.63
2022-10-08T04:34:22.370Z,8.61
2022-10-08T04:35:30.039Z,8.66
2022-10-08T04:36:33.557Z,8.72
2022-10-08T04:37:36.898Z,8.76
2022-10-08T04:38:39.627Z,8.77
2022-10-08T04:39:43.759Z,8.70
2022-10-08T04:40:46.223Z,8.69
2022-10-08T04:41:49.715Z,8.75
2022-10-08T04:42:55.632Z,8.80
2022-10-08T04:44:00.630Z,8.88
2022-10-08T04:45:06.172Z,9.10
2022-10-08T04:46:10.692Z,9.46
2022-10-08T04:47:16.436Z,9.65
2022-10-08T04:48:18.787Z,9.65
2022-10-08T04:49:22.509Z,9.48
2022-10-08T04:50:26.120Z,9.39
2022-10-08T04:51:31.922Z,9.41
2022-10-08T04:52:38.369Z,9.43
2022-10-08T04:53:41.126Z,9.49
2022-10-08T04:54:44.738Z,9.46
2022-10-08T04:55:48.240Z,9.41
2022-10-08T04:56:51.851Z,9.39
2022-10-08T04:57:54.103Z,9.31
2022-10-08T04:58:58.243Z,9.37
2022-10-08T05:00:17.784Z,9.35
2022-10-08T05:01:09.129Z,9.56
2022-10-08T05:02:15.373Z,9.70
2022-10-08T05:03:18.727Z,9.73
2022-10-08T05:04:22.025Z,9.74
2022-10-08T05:05:25.310Z,9.74
2022-10-08T05:06:30.288Z,9.76
2022-10-08T05:07:33.794Z,9.79
2022-10-08T05:08:37.507Z,9.87
2022-10-08T05:09:45.043Z,9.87
2022-10-08T05:10:49.113Z,9.79
2022-10-08T05:11:55.751Z,9.82
2022-10-08T05:12:58.211Z,9.86
2022-10-08T05:14:02.139Z,9.98
2022-10-08T05:15:05.569Z,10.17
2022-10-08T05:16:10.900Z,10.23
2022-10-08T05:17:14.203Z,10.29
2022-10-08T05:18:17.396Z,10.38
2022-10-08T05:19:20.912Z,10.43
2022-10-08T05:20:23.180Z,10.48
2022-10-08T05:21:28.816Z,10.41
2022-10-08T05:22:31.218Z,10.40
2022-10-08T05:23:37.290Z,10.56
2022-10-08T05:25:54.360Z,10.70
2022-10-08T05:26:59.742Z,10.76
2022-10-08T05:28:03.325Z,10.92
2022-10-08T05:29:07.812Z,11.16
2022-10-08T05:30:11.918Z,11.42
2022-10-08T05:31:15.629Z,11.46
2022-10-08T05:32:18.941Z,11.51
2022-10-08T05:33:21.622Z,11.50
2022-10-08T05:34:26.484Z,11.61
2022-10-08T05:35:29.665Z,11.56
2022-10-08T05:36:34.111Z,11.60
2022-10-08T05:37:37.726Z,11.69
2022-10-08T05:38:41.851Z,11.67
2022-10-08T05:39:44.639Z,11.74
2022-10-08T05:40:48.680Z,11.89
2022-10-08T05:41:53.604Z,11.90
2022-10-08T05:42:57.690Z,11.92
2022-10-08T05:44:03.032Z,11.91
2022-10-08T05:45:06.434Z,11.94
2022-10-08T05:46:11.962Z,11.88
2022-10-08T05:47:15.263Z,11.89
2022-10-08T05:48:17.585Z,11.89
2022-10-08T05:49:21.914Z,11.94
2022-10-08T05:50:24.742Z,12.06
2022-10-08T05:51:29.238Z,12.18
2022-10-08T05:52:32.429Z,12.25
2022-10-08T05:53:37.083Z,12.40
2022-10-08T05:54:39.862Z,12.83
2022-10-08T05:55:44.880Z,12.99
2022-10-08T05:56:48.236Z,12.94
2022-10-08T05:57:52.775Z,12.81
2022-10-08T05:58:57.750Z,12.92
2022-10-08T06:00:02.306Z,13.00
2022-10-08T06:01:09.698Z,13.00
2022-10-08T06:02:13.269Z,13.00
2022-10-08T06:03:17.097Z,13.07
2022-10-08T06:04:20.896Z,13.02
2022-10-08T06:05:26.123Z,12.95
2022-10-08T06:06:35.540Z,13.14
2022-10-08T06:07:39.985Z,13.26
2022-10-08T06:08:44.375Z,13.33
2022-10-08T06:09:51.205Z,13.24
2022-10-08T06:10:55.245Z,13.19
2022-10-08T06:12:02.082Z,13.16
2022-10-08T06:13:05.344Z,13.27
2022-10-08T06:14:10.638Z,13.52
2022-10-08T06:15:14.770Z,13.66
2022-10-08T06:16:17.465Z,13.88
2022-10-08T06:17:23.342Z,13.99
2022-10-08T06:18:28.822Z,14.16
2022-10-08T06:19:35.472Z,14.26
2022-10-08T06:20:40.787Z,14.33
2022-10-08T06:21:44.049Z,14.26
2022-10-08T06:22:49.481Z,14.39
2022-10-08T06:23:54.924Z,14.71
2022-10-08T06:25:01.039Z,14.81
2022-10-08T06:26:05.681Z,15.04
2022-10-08T06:27:09.615Z,15.78
2022-10-08T06:28:12.767Z,16.51
2022-10-08T06:29:18.329Z,16.44
2022-10-08T06:30:23.576Z,16.95
2022-10-08T06:31:29.235Z,17.31
2022-10-08T06:32:32.676Z,17.14
2022-10-08T06:33:36.285Z,17.20
2022-10-08T06:34:42.478Z,17.52
2022-10-08T06:35:46.627Z,17.82
2022-10-08T06:36:49.924Z,18.23
2022-10-08T06:37:57.500Z,18.15
2022-10-08T06:39:02.023Z,18.10
2022-10-08T06:40:05.868Z,18.32
2022-10-08T06:41:09.305Z,18.79
2022-10-08T06:42:12.888Z,20.05
2022-10-08T06:43:18.306Z,20.66
2022-10-08T06:44:22.092Z,21.38
2022-10-08T06:45:25.065Z,22.43
2022-10-08T06:46:29.704Z,23.58
2022-10-08T06:47:33.452Z,25.21
2022-10-08T06:48:37.157Z,25.99
2022-10-08T06:49:41.602Z,26.74
2022-10-08T06:50:45.315Z,26.79
2022-10-08T06:51:50.700Z,27.46
2022-10-08T06:52:54.000Z,28.26
2022-10-08T06:54:02.882Z,28.83
2022-10-08T06:55:03.931Z,29.27
2022-10-08T06:56:08.766Z,29.50
2022-10-08T06:57:13.126Z,30.48
2022-10-08T06:58:16.350Z,30.70
2022-10-08T06:59:21.596Z,30.97
2022-10-08T07:00:24.786Z,31.08
2022-10-08T07:01:33.243Z,31.40
2022-10-08T07:02:35.106Z,32.23
2022-10-08T07:03:38.656Z,32.83
2022-10-08T07:04:42.787Z,31.73
2022-10-08T07:05:46.176Z,32.29
2022-10-08T07:06:51.468Z,32.02
2022-10-08T07:07:57.550Z,32.11
2022-10-08T07:09:01.688Z,32.91
2022-10-08T07:10:05.501Z,33.76
2022-10-08T07:11:11.963Z,33.92
2022-10-08T07:12:14.946Z,33.91
2022-10-08T07:13:18.106Z,32.72
2022-10-08T07:14:21.711Z,32.79
2022-10-08T07:15:26.077Z,33.17
2022-10-08T07:16:29.459Z,32.95
2022-10-08T07:17:33.193Z,33.13
2022-10-08T07:18:38.314Z,32.81
2022-10-08T07:19:42.824Z,32.45
2022-10-08T07:20:48.108Z,32.54
2022-10-08T07:21:51.503Z,33.36
2022-10-08T07:22:53.745Z,33.08
2022-10-08T07:23:57.042Z,33.27
2022-10-08T07:25:01.340Z,33.39
2022-10-08T07:26:06.348Z,33.78
2022-10-08T07:27:09.552Z,33.05
2022-10-08T07:28:12.902Z,33.25
2022-10-08T07:29:17.606Z,33.95
2022-10-08T07:30:23.513Z,34.07
2022-10-08T07:55:51.710Z,33.74
2022-10-08T07:56:56.287Z,33.83
2022-10-08T07:58:02.475Z,33.82
2022-10-08T07:59:09.321Z,34.21
2022-10-08T08:00:13.042Z,34.54
2022-10-08T08:01:17.822Z,34.41
2022-10-08T08:02:22.186Z,34.68
2022-10-08T08:03:24.915Z,35.00
2022-10-08T08:04:27.266Z,34.68
2022-10-08T08:05:31.813Z,34.60
2022-10-08T08:06:37.959Z,33.80
2022-10-08T08:07:41.435Z,33.24
2022-10-08T08:08:46.749Z,33.16
2022-10-08T08:09:50.534Z,33.56
2022-10-08T08:10:57.654Z,32.99
2022-10-08T08:12:03.943Z,33.49
2022-10-08T08:13:09.400Z,33.90
2022-10-08T08:14:12.795Z,33.68
2022-10-08T08:15:15.985Z,33.56
2022-10-08T08:16:21.098Z,33.99
2022-10-08T08:17:23.830Z,33.06
2022-10-08T08:18:31.629Z,33.05
2022-10-08T08:19:36.414Z,32.47
2022-10-08T08:20:39.787Z,31.96
2022-10-08T08:21:43.501Z,31.92
2022-10-08T08:22:49.100Z,31.90
2022-10-08T08:23:54.051Z,32.04
2022-10-08T08:24:57.775Z,31.65
2022-10-08T08:26:02.244Z,30.50
2022-10-08T08:27:05.622Z,30.06
2022-10-08T08:28:08.958Z,30.04
2022-10-08T08:29:17.646Z,30.10
2022-10-08T08:30:20.311Z,29.31
2022-10-08T08:31:25.153Z,28.97
2022-10-08T08:32:28.727Z,28.76
2022-10-08T08:33:31.550Z,27.54
2022-10-08T08:34:37.827Z,26.72
2022-10-08T08:35:41.237Z,26.62
2022-10-08T08:36:45.834Z,27.36
2022-10-08T08:37:50.700Z,27.20
2022-10-08T08:38:55.703Z,26.86
2022-10-08T08:39:58.325Z,26.95
2022-10-08T08:41:21.476Z,26.99
2022-10-08T08:42:31.211Z,26.27
2022-10-08T08:43:35.588Z,25.97
2022-10-08T08:44:47.138Z,25.71
2022-10-08T08:45:51.523Z,25.87
2022-10-08T08:46:58.636Z,25.57
2022-10-08T08:48:18.739Z,25.28
2022-10-08T08:49:23.936Z,25.16
2022-10-08T08:50:31.910Z,25.31
2022-10-08T08:51:35.624Z,25.50
2022-10-08T08:52:41.637Z,25.48
2022-10-08T08:53:46.013Z,25.35
2022-10-08T08:54:50.436Z,25.20
2022-10-08T08:55:56.339Z,24.23
2022-10-08T08:57:05.277Z,23.95
2022-10-08T08:58:11.160Z,24.30
2022-10-08T08:59:19.599Z,24.74
2022-10-08T09:00:24.580Z,24.29
2022-10-08T09:01:39.081Z,23.70
2022-10-08T09:03:01.218Z,23.35
2022-10-08T09:04:06.275Z,23.84
2022-10-08T09:05:15.012Z,23.90
2022-10-08T09:06:21.984Z,23.62
2022-10-08T09:07:27.583Z,23.57
2022-10-08T09:08:41.039Z,23.90
2022-10-08T09:09:45.968Z,23.94
2022-10-08T09:10:51.259Z,23.82
2022-10-08T09:11:56.017Z,23.09
2022-10-08T09:13:00.878Z,22.64
2022-10-08T09:14:10.965Z,23.00
2022-10-08T09:15:22.617Z,23.63
2022-10-08T09:16:27.902Z,23.88
2022-10-08T09:17:36.418Z,23.99
2022-10-08T09:18:42.217Z,24.02
2022-10-08T09:19:46.243Z,23.81
2022-10-08T09:20:50.514Z,23.90
2022-10-08T09:21:55.031Z,23.63
2022-10-08T09:23:00.930Z,23.57
2022-10-08T09:24:03.295Z,23.41
2022-10-08T09:25:08.784Z,22.59
2022-10-08T09:26:33.910Z,22.68
2022-10-08T09:27:47.343Z,23.14
2022-10-08T09:28:55.648Z,22.75
2022-10-08T09:30:00.200Z,23.00
2022-10-08T09:31:23.750Z,22.66
2022-10-08T09:32:27.156Z,22.78
2022-10-08T09:33:32.506Z,23.14
2022-10-08T09:34:38.861Z,23.11
2022-10-08T09:35:47.781Z,23.05
2022-10-08T09:36:51.295Z,23.13
2022-10-08T09:37:59.822Z,23.01
2022-10-08T09:39:04.615Z,23.09
2022-10-08T09:40:16.100Z,23.41
2022-10-08T09:41:20.995Z,23.43
2022-10-08T09:42:24.274Z,23.59
2022-10-08T09:43:27.691Z,23.76
2022-10-08T09:44:32.979Z,23.76
2022-10-08T09:45:50.136Z,23.95
2022-10-08T09:46:55.638Z,23.36
2022-10-08T09:48:19.111Z,22.89
2022-10-08T09:49:36.186Z,22.94
2022-10-08T09:50:44.687Z,22.77
2022-10-08T09:51:49.463Z,23.11
2022-10-08T09:52:54.983Z,22.76
2022-10-08T09:54:00.058Z,22.75
2022-10-08T09:55:04.144Z,22.86
2022-10-08T09:56:07.336Z,22.72
2022-10-08T09:57:12.618Z,22.99
2022-10-08T09:58:19.058Z,23.06
2022-10-08T09:59:23.740Z,22.92
2022-10-08T10:00:29.752Z,23.24
2022-10-08T10:01:34.475Z,23.40
2022-10-08T10:02:38.601Z,23.01
2022-10-08T10:03:44.015Z,22.64
2022-10-08T10:04:49.726Z,22.76
2022-10-08T10:05:54.339Z,22.90
2022-10-08T10:06:58.066Z,22.49
2022-10-08T10:08:01.562Z,22.58
2022-10-08T10:09:18.745Z,22.63
2022-10-08T10:10:26.015Z,22.52
2022-10-08T10:11:30.143Z,22.52
2022-10-08T10:12:34.277Z,22.60
2022-10-08T10:13:40.326Z,22.70
2022-10-08T10:14:51.948Z,22.88
2022-10-08T10:16:01.817Z,22.85
2022-10-08T10:17:16.673Z,22.68
2022-10-08T10:18:23.038Z,22.58
2022-10-08T10:19:27.275Z,22.54
2022-10-08T10:20:45.374Z,22.34
2022-10-08T10:21:50.683Z,22.36
2022-10-08T10:23:01.804Z,22.57
2022-10-08T10:24:05.919Z,22.23
2022-10-08T10:25:10.982Z,22.18
2022-10-08T10:26:17.660Z,22.18
2022-10-08T10:27:43.397Z,22.29
2022-10-08T10:28:49.263Z,22.44
2022-10-08T10:30:03.113Z,22.64
2022-10-08T10:31:11.031Z,22.61
2022-10-08T10:32:21.053Z,22.21
2022-10-08T10:33:29.098Z,22.19
2022-10-08T10:34:37.642Z,22.21
2022-10-08T10:35:42.702Z,22.26
2022-10-08T10:36:51.035Z,22.44
2022-10-08T10:38:14.584Z,22.54
2022-10-08T10:39:33.337Z,22.44
2022-10-08T10:40:39.472Z,22.24
2022-10-08T10:41:48.922Z,22.12
2022-10-08T10:43:09.871Z,22.01
2022-10-08T10:44:14.775Z,22.10
2022-10-08T10:45:22.615Z,21.97
2022-10-08T10:46:32.873Z,21.81
2022-10-08T10:47:37.495Z,21.87
2022-10-08T10:48:41.645Z,22.00
2022-10-08T10:49:45.422Z,21.88
2022-10-08T10:50:59.367Z,21.79
2022-10-08T10:52:09.548Z,21.63
2022-10-08T10:53:31.135Z,21.68
2022-10-08T10:54:43.850Z,21.82
2022-10-08T10:56:07.283Z,21.93
2022-10-08T10:57:16.847Z,22.09
2022-10-08T10:58:22.232Z,22.02
2022-10-08T10:59:43.697Z,21.92
2022-10-08T11:00:48.772Z,22.01
2022-10-08T11:02:04.321Z,21.99
2022-10-08T11:03:08.698Z,21.82
2022-10-08T11:04:32.294Z,22.04
2022-10-08T11:05:37.261Z,22.10
2022-10-08T11:06:45.367Z,21.83
2022-10-08T11:07:53.973Z,21.53
2022-10-08T11:09:07.202Z,21.55
2022-10-08T11:10:28.977Z,21.58
2022-10-08T11:11:34.164Z,21.80
2022-10-08T11:12:50.200Z,21.52
2022-10-08T11:14:01.216Z,21.57
2022-10-08T11:15:11.311Z,21.78
2022-10-08T11:16:16.564Z,21.80
2022-10-08T11:17:28.063Z,21.78
2022-10-08T11:18:47.630Z,21.52
2022-10-08T11:19:59.252Z,21.33
2022-10-08T11:21:10.093Z,21.61
2022-10-08T11:22:14.319Z,21.37
2022-10-08T11:23:20.630Z,21.43
2022-10-08T11:24:27.909Z,21.54
2022-10-08T11:26:09.823Z,21.56
2022-10-08T11:27:05.838Z,21.48
2022-10-08T11:28:11.025Z,21.58
2022-10-08T11:29:21.421Z,21.69
2022-10-08T11:30:27.463Z,21.53
2022-10-08T11:31:35.817Z,21.45
2022-10-08T11:32:39.759Z,21.40
2022-10-08T11:33:44.906Z,21.23
2022-10-08T11:34:53.988Z,21.30
2022-10-08T11:36:14.401Z,21.29
2022-10-08T11:37:31.076Z,21.26
2022-10-08T11:38:35.616Z,21.37
2022-10-08T11:39:46.965Z,21.55
2022-10-08T11:40:55.694Z,21.52
2022-10-08T11:42:18.719Z,21.53
2022-10-08T11:43:27.796Z,21.62
2022-10-08T11:44:31.416Z,21.79
2022-10-08T11:45:41.873Z,21.91
2022-10-08T11:46:46.699Z,21.77
2022-10-08T11:47:54.855Z,21.69
2022-10-08T11:49:06.488Z,21.40
2022-10-08T11:50:11.778Z,21.46
2022-10-08T11:51:23.782Z,21.43
2022-10-08T11:52:31.003Z,21.30
2022-10-08T11:53:34.190Z,21.23
2022-10-08T11:54:39.691Z,21.47
2022-10-08T11:55:48.406Z,21.58
2022-10-08T11:56:54.480Z,21.66
2022-10-08T11:58:09.359Z,21.64
2022-10-08T11:59:11.363Z,21.44
2022-10-08T12:00:25.827Z,21.26
2022-10-08T12:01:28.180Z,21.34
2022-10-08T12:02:32.926Z,21.53
2022-10-08T12:03:39.316Z,21.37
2022-10-08T12:04:46.926Z,21.29
2022-10-08T12:05:53.555Z,21.31
2022-10-08T12:07:08.283Z,21.51
2022-10-08T12:08:10.739Z,21.29
2022-10-08T12:09:24.409Z,21.24
2022-10-08T12:10:31.639Z,21.39
2022-10-08T12:11:37.432Z,21.45
2022-10-08T12:12:50.939Z,21.22
2022-10-08T12:14:13.519Z,21.05
2022-10-08T12:15:30.886Z,21.05
2022-10-08T12:16:51.832Z,21.31
2022-10-08T12:17:56.614Z,21.32
2022-10-08T12:19:01.766Z,21.39
2022-10-08T12:20:07.253Z,21.30
2022-10-08T12:21:19.002Z,21.33
2022-10-08T12:22:24.595Z,21.37
2022-10-08T12:23:33.961Z,21.38
2022-10-08T12:24:43.775Z,21.53
2022-10-08T12:25:49.941Z,21.59
2022-10-08T12:27:11.802Z,21.29
2022-10-08T12:28:24.053Z,21.11
2022-10-08T12:29:33.613Z,21.10
2022-10-08T12:30:45.636Z,21.26
2022-10-08T12:31:51.377Z,20.92
2022-10-08T12:32:55.479Z,21.05
2022-10-08T12:34:02.011Z,21.15
2022-10-08T12:35:06.693Z,21.24
2022-10-08T12:36:16.754Z,21.36
2022-10-08T12:37:26.522Z,21.01
2022-10-08T12:38:32.826Z,21.20
2022-10-08T12:39:37.543Z,21.30
2022-10-08T12:40:42.364Z,21.18
2022-10-08T12:41:53.379Z,21.16
2022-10-08T12:42:58.984Z,21.11
2022-10-08T12:44:23.266Z,21.08
2022-10-08T12:45:28.754Z,21.16
2022-10-08T12:46:44.982Z,21.18
2022-10-08T12:47:52.695Z,21.05
2022-10-08T12:49:07.062Z,21.10
2022-10-08T12:50:30.818Z,21.03
2022-10-08T12:51:38.782Z,21.11
2022-10-08T12:52:42.226Z,21.19
2022-10-08T12:53:47.506Z,21.15
2022-10-08T12:54:52.507Z,21.03
2022-10-08T12:55:57.223Z,20.95
2022-10-08T12:57:02.502Z,20.77
2022-10-08T12:58:07.689Z,20.91
2022-10-08T12:59:12.342Z,21.04
2022-10-08T13:00:23.271Z,20.92
2022-10-08T13:01:29.816Z,20.80
2022-10-08T13:02:41.144Z,20.97
2022-10-08T13:03:44.766Z,21.06
2022-10-08T13:04:51.163Z,20.89
2022-10-08T13:05:56.496Z,20.84
2022-10-08T13:07:00.488Z,20.87
2022-10-08T13:08:21.743Z,20.73
2022-10-08T13:09:29.949Z,20.86
2022-10-08T13:10:32.294Z,20.84
2022-10-08T13:11:52.180Z,20.93
2022-10-08T13:13:05.985Z,20.89
2022-10-08T13:14:11.334Z,20.97
2022-10-08T13:15:26.839Z,20.84
2022-10-08T13:16:31.340Z,20.70
2022-10-08T13:17:39.915Z,20.78
2022-10-08T13:18:44.678Z,20.86
2022-10-08T13:19:47.545Z,20.80
2022-10-08T13:21:06.988Z,20.79
2022-10-08T13:22:26.632Z,20.65
2022-10-08T13:23:33.687Z,20.80
2022-10-08T13:24:38.443Z,20.79
2022-10-08T13:25:41.116Z,20.66
2022-10-08T13:26:46.387Z,20.68
2022-10-08T13:27:52.085Z,20.52
2022-10-08T13:29:13.166Z,20.43
2022-10-08T13:30:24.884Z,20.36
2022-10-08T13:31:31.479Z,20.42
2022-10-08T13:32:35.985Z,20.44
2022-10-08T13:33:38.656Z,20.50
2022-10-08T13:34:45.084Z,20.38
2022-10-08T13:35:52.792Z,20.40
2022-10-08T13:36:57.009Z,20.43
2022-10-08T13:38:01.558Z,20.42
2022-10-08T13:39:04.212Z,20.36
2022-10-08T13:40:14.515Z,20.14
2022-10-08T13:41:24.392Z,20.19
2022-10-08T13:42:32.294Z,20.18
2022-10-08T13:43:35.778Z,20.27
2022-10-08T13:44:43.894Z,20.23
2022-10-08T13:45:47.643Z,20.25
2022-10-08T13:46:52.243Z,20.24
2022-10-08T13:47:56.077Z,20.26
2022-10-08T13:48:59.582Z,20.07
2022-10-08T13:50:03.399Z,20.09
2022-10-08T13:51:07.047Z,20.12
2022-10-08T13:52:12.395Z,20.02
2022-10-08T13:53:17.763Z,19.89
2022-10-08T13:54:25.453Z,19.98
2022-10-08T13:55:34.785Z,19.96
2022-10-08T13:56:37.832Z,20.02
2022-10-08T13:57:42.131Z,20.02
2022-10-08T13:58:48.920Z,20.00
2022-10-08T13:59:51.995Z,19.90
2022-10-08T14:00:54.365Z,19.96
2022-10-08T14:01:59.063Z,20.09
2022-10-08T14:03:04.354Z,20.02
2022-10-08T14:04:07.977Z,19.97
2022-10-08T14:05:11.585Z,19.91
2022-10-08T14:06:16.638Z,19.94
2022-10-08T14:07:21.007Z,20.01
2022-10-08T14:08:26.381Z,19.98
2022-10-08T14:09:32.221Z,19.87
2022-10-08T14:10:37.668Z,19.78
2022-10-08T14:11:42.230Z,19.81
2022-10-08T14:12:45.865Z,19.65
2022-10-08T14:13:49.335Z,19.70
2022-10-08T14:14:53.572Z,19.69
2022-10-08T14:15:57.111Z,19.56
2022-10-08T14:16:59.433Z,19.44
2022-10-08T14:18:04.264Z,19.29
2022-10-08T14:19:11.989Z,19.33
2022-10-08T14:20:15.696Z,19.29
2022-10-08T14:21:19.406Z,19.40
2022-10-08T14:22:22.496Z,19.27
2022-10-08T14:23:26.126Z,19.29
2022-10-08T14:24:30.552Z,19.32
2022-10-08T14:25:33.728Z,19.20
2022-10-08T14:26:37.028Z,19.18
2022-10-08T14:27:40.291Z,19.31
2022-10-08T14:28:43.513Z,19.25
2022-10-08T14:29:47.122Z,19.23
2022-10-08T14:30:50.533Z,19.22
2022-10-08T14:31:54.847Z,19.14
2022-10-08T14:33:00.571Z,18.97
2022-10-08T14:34:04.915Z,18.96
2022-10-08T14:35:09.073Z,18.90
2022-10-08T14:36:20.371Z,18.94
2022-10-08T14:37:27.539Z,18.89
2022-10-08T14:38:33.631Z,18.88
2022-10-08T14:39:37.059Z,18.87
2022-10-08T14:40:40.496Z,18.86
2022-10-08T14:41:46.777Z,18.80
2022-10-08T14:42:50.842Z,18.80
2022-10-08T14:43:56.628Z,18.79
2022-10-08T14:45:00.228Z,18.69
2022-10-08T14:46:03.485Z,18.67
2022-10-08T14:47:06.819Z,18.58
2022-10-08T14:48:10.103Z,18.57
2022-10-08T14:49:15.906Z,18.55
2022-10-08T14:50:19.629Z,18.46
2022-10-08T14:51:23.239Z,18.45
2022-10-08T14:52:26.640Z,18.42
2022-10-08T14:53:28.884Z,18.36